Nautilus — OUYX2 — position and weather

sailwx.info

Track history (hours):
 
Tides and Currents Weather Stations Pressure Air Temp Water Temp Dewpoint Dewpoint Depression Visibility Wind Speed Wind Dir Waves Ship Positions

Nautilus

Last reported at 2016-May-27 05:33 UTC. Time now 2016-May-27 06:26 UTC.
Position N 52°07' E 003°45'.

Length 120 m; draft 7.1 m.

Type: Ship. MMSI: 219425000.

Date/timePositionNaut miles runAvg speedWind from/ knotsBaromVisibWave heightAir tempDewpointWater temp
2016-May-27 05:33N 52°07' E 003°45'2 1.7
2016-May-27 04:22N 52°09' E 003°42'0 0.1
2016-May-27 03:31N 52°09' E 003°42'0 0.1
2016-May-27 02:31N 52°09' E 003°42'0 0.0
2016-May-27 01:31N 52°09' E 003°42'0 0.0
2016-May-27 00:34N 52°09' E 003°42'0 0.0
2016-May-26 23:34N 52°09' E 003°42'0 0.0
2016-May-26 22:30N 52°09' E 003°42'0 0.0
2016-May-26 21:31N 52°09' E 003°42'0 0.0
2016-May-26 20:31N 52°09' E 003°42'0 0.1
2016-May-26 19:31N 52°09' E 003°42'0 0.0
2016-May-26 18:31N 52°09' E 003°42'0 0.0
2016-May-26 17:28N 52°09' E 003°42'0 0.1
2016-May-26 16:34N 52°09' E 003°42'0 0.1
2016-May-26 15:34N 52°09' E 003°42'0 0.1
2016-May-26 14:34N 52°09' E 003°42'0 0.0
2016-May-26 13:34N 52°09' E 003°42'0 0.0
2016-May-26 12:31N 52°09' E 003°42'0 0.0
2016-May-26 11:28N 52°09' E 003°42'0 0.0
2016-May-26 10:31N 52°09' E 003°42'0 0.0
2016-May-26 09:34N 52°09' E 003°42'0 0.1
2016-May-26 07:25N 52°09' E 003°42'0 0.0
2016-May-26 05:31N 52°09' E 003°42'0 0.0
2016-May-26 04:34N 52°09' E 003°42'0 0.0
2016-May-26 03:28N 52°09' E 003°42'0 0.1
2016-May-26 02:30N 52°09' E 003°42'0 0.0
2016-May-26 01:22N 52°09' E 003°42'0 0.0
2016-May-26 00:22N 52°09' E 003°42'0 0.0
2016-May-25 23:25N 52°09' E 003°42'0 0.0
2016-May-25 22:28N 52°09' E 003°42'0 0.0
2016-May-25 21:34N 52°09' E 003°42'0 0.0
2016-May-25 20:25N 52°09' E 003°42'0 0.1
2016-May-25 19:31N 52°09' E 003°42'0 0.0
2016-May-25 17:25N 52°09' E 003°42'0 0.0
2016-May-25 15:28N 52°09' E 003°42'0 0.1
2016-May-25 13:25N 52°09' E 003°42'0 0.0
2016-May-25 12:16N 52°09' E 003°42'0 0.0
2016-May-25 11:31N 52°09' E 003°42'0 0.0
2016-May-25 10:25N 52°09' E 003°42'0 0.0
2016-May-25 09:30N 52°09' E 003°42'0 0.0
2016-May-25 06:30N 52°09' E 003°42'3 3.2
2016-May-25 05:33N 52°11' E 003°46'10 9.7
2016-May-25 04:33N 52°21' E 003°48'10 9.9
2016-May-25 03:33N 52°30' E 003°52'1111.0
2016-May-25 02:33N 52°41' E 003°55'1212.0
2016-May-25 01:32N 52°53' E 003°58'1211.7
2016-May-25 00:33N 53°03' E 004°09'5911.4
2016-May-24 19:24N 53°55' E 004°52'911.2
2016-May-24 18:33N 54°04' E 004°58'1111.2
2016-May-24 17:33N 54°14' E 005°08'1211.5
2016-May-24 16:29N 54°24' E 005°20'3911.4
2016-May-24 13:04N 54°57' E 005°56'3111.7
2016-May-24 10:23N 55°23' E 006°25'2711.9
2016-May-24 08:06N 55°47' E 006°49'12311.7
2016-May-23 21:32N 57°26' E 009°03'1212.0
2016-May-23 20:33N 57°32' E 009°22'1412.2
2016-May-23 19:26N 57°38' E 009°44'1212.0
2016-May-23 18:26N 57°44' E 010°05'1011.8
2016-May-23 17:33N 57°47' E 010°23'1211.4
2016-May-23 16:31N 57°48' E 010°45'1111.9
2016-May-23 15:33N 57°43' E 011°05'1212.1
2016-May-23 14:33N 57°40' E 011°26'1010.3
2016-May-23 13:33N 57°39' E 011°45'4 4.1
2016-May-23 12:32N 57°41' E 011°52'0 0.0
2016-May-23 11:32N 57°41' E 011°52'0 0.0
2016-May-23 10:32N 57°41' E 011°52'0 0.0
2016-May-23 09:32N 57°41' E 011°52'0 0.0
2016-May-23 08:32N 57°41' E 011°52'0 0.0
2016-May-23 07:32N 57°41' E 011°52'0 0.0
2016-May-23 06:32N 57°41' E 011°52'0 0.0
2016-May-23 05:32N 57°41' E 011°52'0 0.0
2016-May-23 04:32N 57°41' E 011°52'0 0.0
2016-May-23 03:32N 57°41' E 011°52'0 0.0
2016-May-23 02:34N 57°41' E 011°52'0 0.0
2016-May-23 01:34N 57°41' E 011°52'0 0.0
2016-May-23 00:34N 57°41' E 011°52'0 0.0
2016-May-22 23:34N 57°41' E 011°52'0 0.2
2016-May-22 22:34N 57°41' E 011°52'3 2.8
2016-May-22 21:33N 57°40' E 011°47'0 0.0
2016-May-22 20:31N 57°40' E 011°47'0 0.0
2016-May-22 19:31N 57°40' E 011°47'0 0.0
2016-May-22 18:31N 57°40' E 011°47'0 0.0
2016-May-22 17:31N 57°40' E 011°47'0 0.0
2016-May-22 16:34N 57°40' E 011°47'0 0.0
2016-May-22 15:31N 57°40' E 011°47'0 0.0
2016-May-22 14:34N 57°40' E 011°47'0 0.0
2016-May-22 13:34N 57°40' E 011°47'0 0.0
2016-May-22 12:31N 57°40' E 011°47'0 0.0
2016-May-22 11:34N 57°40' E 011°47'0 0.0
2016-May-22 10:34N 57°40' E 011°47'0 0.0
2016-May-22 09:34N 57°40' E 011°47'0 0.0
2016-May-22 08:34N 57°40' E 011°47'0 0.0
2016-May-22 07:31N 57°40' E 011°47'0 0.0
2016-May-22 06:34N 57°40' E 011°47'0 0.0
2016-May-22 05:31N 57°40' E 011°47'0 0.0
2016-May-22 04:34N 57°40' E 011°47'0 0.0
2016-May-22 03:31N 57°40' E 011°47'0 0.0
2016-May-22 02:31N 57°40' E 011°47'0 0.0
2016-May-22 01:31N 57°40' E 011°47'0 0.0
2016-May-22 00:34N 57°40' E 011°47'7 6.5
2016-May-21 23:34N 57°36' E 011°38'1212.1
2016-May-21 22:33N 57°40' E 011°17'1312.9
2016-May-21 21:34N 57°46' E 010°55'1312.7
2016-May-21 20:30N 57°48' E 010°30'10713.0
2016-May-21 12:14N 57°42' E 007°09'912.4
2016-May-21 11:33N 57°42' E 006°53'1211.7
2016-May-21 10:33N 57°44' E 006°31'1211.7
2016-May-21 09:34N 57°52' E 006°15'1211.8
2016-May-21 08:33N 57°59' E 005°58'1211.4
2016-May-21 07:32N 58°07' E 005°41'1111.6
2016-May-21 06:33N 58°14' E 005°25'1010.4
2016-May-21 05:33N 58°23' E 005°14'1211.9
2016-May-21 04:33N 58°35' E 005°18'1212.0
2016-May-21 03:34N 58°47' E 005°21'1111.3
2016-May-21 02:33N 58°56' E 005°33'1 1.4
2016-May-21 01:33N 58°56' E 005°36'0 0.0
2016-May-21 00:33N 58°56' E 005°36'0 0.0
2016-May-20 23:33N 58°56' E 005°36'0 0.0
2016-May-20 22:33N 58°56' E 005°36'0 0.0
2016-May-20 21:32N 58°56' E 005°36'0 0.0
2016-May-20 20:33N 58°56' E 005°36'0 0.0
2016-May-20 19:33N 58°56' E 005°36'0 0.0
2016-May-20 18:32N 58°56' E 005°36'0 0.0
2016-May-20 17:33N 58°56' E 005°36'0 0.0
2016-May-20 16:33N 58°56' E 005°36'0 0.0
2016-May-20 15:33N 58°56' E 005°36'0 0.0
2016-May-20 14:32N 58°56' E 005°36'0 0.0
2016-May-20 13:33N 58°56' E 005°36'0 0.0
2016-May-20 12:33N 58°56' E 005°36'0 0.0
2016-May-20 11:33N 58°56' E 005°36'0 0.0
2016-May-20 10:32N 58°56' E 005°36'0 0.0
2016-May-20 09:32N 58°56' E 005°36'0 0.0
2016-May-20 08:32N 58°56' E 005°36'0 0.0
2016-May-20 07:33N 58°56' E 005°36'0 0.0
2016-May-20 06:33N 58°56' E 005°36'0 0.0
2016-May-20 05:33N 58°56' E 005°36'0 0.0
2016-May-20 04:33N 58°56' E 005°36'5 4.7
2016-May-20 03:34N 58°52' E 005°31'10 9.8
2016-May-20 02:34N 58°43' E 005°24'1111.0
2016-May-20 01:34N 58°32' E 005°22'1110.7
2016-May-20 00:34N 58°21' E 005°25'1311.6
2016-May-19 23:27N 58°13' E 005°44'1112.1
2016-May-19 22:31N 58°06' E 005°60'1211.8
2016-May-19 21:32N 57°58' E 006°17'1111.7
2016-May-19 20:33N 57°51' E 006°34'1211.4
2016-May-19 19:33N 57°48' E 006°54'1212.2
2016-May-19 18:33N 57°47' E 007°17'9711.5
2016-May-19 10:09N 57°49' E 010°18'711.1
2016-May-19 09:32N 57°49' E 010°31'1010.6
2016-May-19 08:33N 57°48' E 010°51'1110.8
2016-May-19 07:34N 57°43' E 011°09'1111.0
2016-May-19 06:34N 57°39' E 011°27'10 9.6
2016-May-19 05:34N 57°39' E 011°45'4 4.4
2016-May-19 04:34N 57°41' E 011°53'0 0.0
2016-May-19 03:31N 57°41' E 011°53'0 0.0
2016-May-19 02:31N 57°41' E 011°53'0 0.0
2016-May-19 01:31N 57°41' E 011°53'0 0.0
2016-May-19 00:31N 57°41' E 011°53'0 0.0
2016-May-18 23:31N 57°41' E 011°53'0 0.0
2016-May-18 22:31N 57°41' E 011°53'0 0.0
2016-May-18 21:31N 57°41' E 011°53'0 0.0
2016-May-18 20:31N 57°41' E 011°53'0 0.0
2016-May-18 19:31N 57°41' E 011°53'0 0.0
2016-May-18 18:31N 57°41' E 011°53'0 0.0
2016-May-18 17:31N 57°41' E 011°53'0 0.0
2016-May-18 16:31N 57°41' E 011°53'0 0.0
2016-May-18 15:31N 57°41' E 011°53'0 0.0
2016-May-18 14:31N 57°41' E 011°53'0 0.0
2016-May-18 13:31N 57°41' E 011°53'0 0.0
2016-May-18 12:31N 57°41' E 011°53'0 0.0
2016-May-18 11:31N 57°41' E 011°53'0 0.0
2016-May-18 10:31N 57°41' E 011°53'0 0.0
2016-May-18 09:31N 57°41' E 011°53'0 0.0
2016-May-18 08:31N 57°41' E 011°53'3 3.1
2016-May-18 07:33N 57°41' E 011°47'3 3.2
2016-May-18 06:33N 57°41' E 011°41'0 0.0
2016-May-18 05:33N 57°41' E 011°41'0 0.0
2016-May-18 04:33N 57°41' E 011°41'0 0.0
2016-May-18 03:33N 57°41' E 011°41'0 0.0
2016-May-18 02:33N 57°41' E 011°41'0 0.0
2016-May-18 01:33N 57°41' E 011°41'0 0.0
2016-May-18 00:33N 57°41' E 011°41'0 0.0
2016-May-17 23:33N 57°41' E 011°41'0 0.0
2016-May-17 22:33N 57°41' E 011°41'0 0.0
2016-May-17 21:33N 57°41' E 011°41'0 0.0
2016-May-17 20:33N 57°41' E 011°41'0 0.0
2016-May-17 19:33N 57°41' E 011°41'0 0.0
2016-May-17 18:33N 57°41' E 011°41'0 0.0
2016-May-17 17:33N 57°41' E 011°41'0 0.0
2016-May-17 16:30N 57°41' E 011°41'0 0.0
2016-May-17 15:33N 57°41' E 011°41'0 0.0
2016-May-17 14:33N 57°41' E 011°41'0 0.0
2016-May-17 13:33N 57°41' E 011°41'0 0.0
2016-May-17 12:33N 57°41' E 011°41'0 0.0
2016-May-17 11:33N 57°41' E 011°41'0 0.0
2016-May-17 10:33N 57°41' E 011°41'0 0.0
2016-May-17 09:33N 57°41' E 011°41'0 0.0
2016-May-17 08:33N 57°41' E 011°41'0 0.0
2016-May-17 07:33N 57°41' E 011°41'0 0.0
2016-May-17 06:33N 57°41' E 011°41'0 0.1
2016-May-17 05:33N 57°41' E 011°41'  
Track history (hours):
 
Tides and Currents Weather Stations Pressure Air Temp Water Temp Dewpoint Dewpoint Depression Visibility Wind Speed Wind Dir Waves Ship Positions

Nautilus

Last reported at 2016-May-27 05:33 UTC. Time now 2016-May-27 06:26 UTC.
Position N 52°07' E 003°45'.

Length 120 m; draft 7.1 m.

Type: Ship. MMSI: 219425000.

Date/timePositionNaut miles runAvg speedWind from/ knotsBaromVisibWave heightAir tempDewpointWater temp
2016-May-27 05:33N 52°07' E 003°45'2 1.7
2016-May-27 04:22N 52°09' E 003°42'0 0.1
2016-May-27 03:31N 52°09' E 003°42'0 0.1
2016-May-27 02:31N 52°09' E 003°42'0 0.0
2016-May-27 01:31N 52°09' E 003°42'0 0.0
2016-May-27 00:34N 52°09' E 003°42'0 0.0
2016-May-26 23:34N 52°09' E 003°42'0 0.0
2016-May-26 22:30N 52°09' E 003°42'0 0.0
2016-May-26 21:31N 52°09' E 003°42'0 0.0
2016-May-26 20:31N 52°09' E 003°42'0 0.1
2016-May-26 19:31N 52°09' E 003°42'0 0.0
2016-May-26 18:31N 52°09' E 003°42'0 0.0
2016-May-26 17:28N 52°09' E 003°42'0 0.1
2016-May-26 16:34N 52°09' E 003°42'0 0.1
2016-May-26 15:34N 52°09' E 003°42'0 0.1
2016-May-26 14:34N 52°09' E 003°42'0 0.0
2016-May-26 13:34N 52°09' E 003°42'0 0.0
2016-May-26 12:31N 52°09' E 003°42'0 0.0
2016-May-26 11:28N 52°09' E 003°42'0 0.0
2016-May-26 10:31N 52°09' E 003°42'0 0.0
2016-May-26 09:34N 52°09' E 003°42'0 0.1
2016-May-26 07:25N 52°09' E 003°42'0 0.0
2016-May-26 05:31N 52°09' E 003°42'0 0.0
2016-May-26 04:34N 52°09' E 003°42'0 0.0
2016-May-26 03:28N 52°09' E 003°42'0 0.1
2016-May-26 02:30N 52°09' E 003°42'0 0.0
2016-May-26 01:22N 52°09' E 003°42'0 0.0
2016-May-26 00:22N 52°09' E 003°42'0 0.0
2016-May-25 23:25N 52°09' E 003°42'0 0.0
2016-May-25 22:28N 52°09' E 003°42'0 0.0
2016-May-25 21:34N 52°09' E 003°42'0 0.0
2016-May-25 20:25N 52°09' E 003°42'0 0.1
2016-May-25 19:31N 52°09' E 003°42'0 0.0
2016-May-25 17:25N 52°09' E 003°42'0 0.0
2016-May-25 15:28N 52°09' E 003°42'0 0.1
2016-May-25 13:25N 52°09' E 003°42'0 0.0
2016-May-25 12:16N 52°09' E 003°42'0 0.0
2016-May-25 11:31N 52°09' E 003°42'0 0.0
2016-May-25 10:25N 52°09' E 003°42'0 0.0
2016-May-25 09:30N 52°09' E 003°42'0 0.0
2016-May-25 06:30N 52°09' E 003°42'3 3.2
2016-May-25 05:33N 52°11' E 003°46'10 9.7
2016-May-25 04:33N 52°21' E 003°48'10 9.9
2016-May-25 03:33N 52°30' E 003°52'1111.0
2016-May-25 02:33N 52°41' E 003°55'1212.0
2016-May-25 01:32N 52°53' E 003°58'1211.7
2016-May-25 00:33N 53°03' E 004°09'5911.4
2016-May-24 19:24N 53°55' E 004°52'911.2
2016-May-24 18:33N 54°04' E 004°58'1111.2
2016-May-24 17:33N 54°14' E 005°08'1211.5
2016-May-24 16:29N 54°24' E 005°20'3911.4
2016-May-24 13:04N 54°57' E 005°56'3111.7
2016-May-24 10:23N 55°23' E 006°25'2711.9
2016-May-24 08:06N 55°47' E 006°49'12311.7
2016-May-23 21:32N 57°26' E 009°03'1212.0
2016-May-23 20:33N 57°32' E 009°22'1412.2
2016-May-23 19:26N 57°38' E 009°44'1212.0
2016-May-23 18:26N 57°44' E 010°05'1011.8
2016-May-23 17:33N 57°47' E 010°23'1211.4
2016-May-23 16:31N 57°48' E 010°45'1111.9
2016-May-23 15:33N 57°43' E 011°05'1212.1
2016-May-23 14:33N 57°40' E 011°26'1010.3
2016-May-23 13:33N 57°39' E 011°45'4 4.1
2016-May-23 12:32N 57°41' E 011°52'0 0.0
2016-May-23 11:32N 57°41' E 011°52'0 0.0
2016-May-23 10:32N 57°41' E 011°52'0 0.0
2016-May-23 09:32N 57°41' E 011°52'0 0.0
2016-May-23 08:32N 57°41' E 011°52'0 0.0
2016-May-23 07:32N 57°41' E 011°52'0 0.0
2016-May-23 06:32N 57°41' E 011°52'0 0.0
2016-May-23 05:32N 57°41' E 011°52'0 0.0
2016-May-23 04:32N 57°41' E 011°52'0 0.0
2016-May-23 03:32N 57°41' E 011°52'0 0.0
2016-May-23 02:34N 57°41' E 011°52'0 0.0
2016-May-23 01:34N 57°41' E 011°52'0 0.0
2016-May-23 00:34N 57°41' E 011°52'0 0.0
2016-May-22 23:34N 57°41' E 011°52'0 0.2
2016-May-22 22:34N 57°41' E 011°52'3 2.8
2016-May-22 21:33N 57°40' E 011°47'0 0.0
2016-May-22 20:31N 57°40' E 011°47'0 0.0
2016-May-22 19:31N 57°40' E 011°47'0 0.0
2016-May-22 18:31N 57°40' E 011°47'0 0.0
2016-May-22 17:31N 57°40' E 011°47'0 0.0
2016-May-22 16:34N 57°40' E 011°47'0 0.0
2016-May-22 15:31N 57°40' E 011°47'0 0.0
2016-May-22 14:34N 57°40' E 011°47'0 0.0
2016-May-22 13:34N 57°40' E 011°47'0 0.0
2016-May-22 12:31N 57°40' E 011°47'0 0.0
2016-May-22 11:34N 57°40' E 011°47'0 0.0
2016-May-22 10:34N 57°40' E 011°47'0 0.0
2016-May-22 09:34N 57°40' E 011°47'0 0.0
2016-May-22 08:34N 57°40' E 011°47'0 0.0
2016-May-22 07:31N 57°40' E 011°47'0 0.0
2016-May-22 06:34N 57°40' E 011°47'0 0.0
2016-May-22 05:31N 57°40' E 011°47'0 0.0
2016-May-22 04:34N 57°40' E 011°47'0 0.0
2016-May-22 03:31N 57°40' E 011°47'0 0.0
2016-May-22 02:31N 57°40' E 011°47'0 0.0
2016-May-22 01:31N 57°40' E 011°47'0 0.0
2016-May-22 00:34N 57°40' E 011°47'7 6.5
2016-May-21 23:34N 57°36' E 011°38'1212.1
2016-May-21 22:33N 57°40' E 011°17'1312.9
2016-May-21 21:34N 57°46' E 010°55'1312.7
2016-May-21 20:30N 57°48' E 010°30'10713.0
2016-May-21 12:14N 57°42' E 007°09'912.4
2016-May-21 11:33N 57°42' E 006°53'1211.7
2016-May-21 10:33N 57°44' E 006°31'1211.7
2016-May-21 09:34N 57°52' E 006°15'1211.8
2016-May-21 08:33N 57°59' E 005°58'1211.4
2016-May-21 07:32N 58°07' E 005°41'1111.6
2016-May-21 06:33N 58°14' E 005°25'1010.4
2016-May-21 05:33N 58°23' E 005°14'1211.9
2016-May-21 04:33N 58°35' E 005°18'1212.0
2016-May-21 03:34N 58°47' E 005°21'1111.3
2016-May-21 02:33N 58°56' E 005°33'1 1.4
2016-May-21 01:33N 58°56' E 005°36'0 0.0
2016-May-21 00:33N 58°56' E 005°36'0 0.0
2016-May-20 23:33N 58°56' E 005°36'0 0.0
2016-May-20 22:33N 58°56' E 005°36'0 0.0
2016-May-20 21:32N 58°56' E 005°36'0 0.0
2016-May-20 20:33N 58°56' E 005°36'0 0.0
2016-May-20 19:33N 58°56' E 005°36'0 0.0
2016-May-20 18:32N 58°56' E 005°36'0 0.0
2016-May-20 17:33N 58°56' E 005°36'0 0.0
2016-May-20 16:33N 58°56' E 005°36'0 0.0
2016-May-20 15:33N 58°56' E 005°36'0 0.0
2016-May-20 14:32N 58°56' E 005°36'0 0.0
2016-May-20 13:33N 58°56' E 005°36'0 0.0
2016-May-20 12:33N 58°56' E 005°36'0 0.0
2016-May-20 11:33N 58°56' E 005°36'0 0.0
2016-May-20 10:32N 58°56' E 005°36'0 0.0
2016-May-20 09:32N 58°56' E 005°36'0 0.0
2016-May-20 08:32N 58°56' E 005°36'0 0.0
2016-May-20 07:33N 58°56' E 005°36'0 0.0
2016-May-20 06:33N 58°56' E 005°36'0 0.0
2016-May-20 05:33N 58°56' E 005°36'0 0.0
2016-May-20 04:33N 58°56' E 005°36'5 4.7
2016-May-20 03:34N 58°52' E 005°31'10 9.8
2016-May-20 02:34N 58°43' E 005°24'1111.0
2016-May-20 01:34N 58°32' E 005°22'1110.7
2016-May-20 00:34N 58°21' E 005°25'1311.6
2016-May-19 23:27N 58°13' E 005°44'1112.1
2016-May-19 22:31N 58°06' E 005°60'1211.8
2016-May-19 21:32N 57°58' E 006°17'1111.7
2016-May-19 20:33N 57°51' E 006°34'1211.4
2016-May-19 19:33N 57°48' E 006°54'1212.2
2016-May-19 18:33N 57°47' E 007°17'9711.5
2016-May-19 10:09N 57°49' E 010°18'711.1
2016-May-19 09:32N 57°49' E 010°31'1010.6
2016-May-19 08:33N 57°48' E 010°51'1110.8
2016-May-19 07:34N 57°43' E 011°09'1111.0
2016-May-19 06:34N 57°39' E 011°27'10 9.6
2016-May-19 05:34N 57°39' E 011°45'4 4.4
2016-May-19 04:34N 57°41' E 011°53'0 0.0
2016-May-19 03:31N 57°41' E 011°53'0 0.0
2016-May-19 02:31N 57°41' E 011°53'0 0.0
2016-May-19 01:31N 57°41' E 011°53'0 0.0
2016-May-19 00:31N 57°41' E 011°53'0 0.0
2016-May-18 23:31N 57°41' E 011°53'0 0.0
2016-May-18 22:31N 57°41' E 011°53'0 0.0
2016-May-18 21:31N 57°41' E 011°53'0 0.0
2016-May-18 20:31N 57°41' E 011°53'0 0.0
2016-May-18 19:31N 57°41' E 011°53'0 0.0
2016-May-18 18:31N 57°41' E 011°53'0 0.0
2016-May-18 17:31N 57°41' E 011°53'0 0.0
2016-May-18 16:31N 57°41' E 011°53'0 0.0
2016-May-18 15:31N 57°41' E 011°53'0 0.0
2016-May-18 14:31N 57°41' E 011°53'0 0.0
2016-May-18 13:31N 57°41' E 011°53'0 0.0
2016-May-18 12:31N 57°41' E 011°53'0 0.0
2016-May-18 11:31N 57°41' E 011°53'0 0.0
2016-May-18 10:31N 57°41' E 011°53'0 0.0
2016-May-18 09:31N 57°41' E 011°53'0 0.0
2016-May-18 08:31N 57°41' E 011°53'3 3.1
2016-May-18 07:33N 57°41' E 011°47'3 3.2
2016-May-18 06:33N 57°41' E 011°41'0 0.0
2016-May-18 05:33N 57°41' E 011°41'0 0.0
2016-May-18 04:33N 57°41' E 011°41'0 0.0
2016-May-18 03:33N 57°41' E 011°41'0 0.0
2016-May-18 02:33N 57°41' E 011°41'0 0.0
2016-May-18 01:33N 57°41' E 011°41'0 0.0
2016-May-18 00:33N 57°41' E 011°41'0 0.0
2016-May-17 23:33N 57°41' E 011°41'0 0.0
2016-May-17 22:33N 57°41' E 011°41'0 0.0
2016-May-17 21:33N 57°41' E 011°41'0 0.0
2016-May-17 20:33N 57°41' E 011°41'0 0.0
2016-May-17 19:33N 57°41' E 011°41'0 0.0
2016-May-17 18:33N 57°41' E 011°41'0 0.0
2016-May-17 17:33N 57°41' E 011°41'0 0.0
2016-May-17 16:30N 57°41' E 011°41'0 0.0
2016-May-17 15:33N 57°41' E 011°41'0 0.0
2016-May-17 14:33N 57°41' E 011°41'0 0.0
2016-May-17 13:33N 57°41' E 011°41'0 0.0
2016-May-17 12:33N 57°41' E 011°41'0 0.0
2016-May-17 11:33N 57°41' E 011°41'0 0.0
2016-May-17 10:33N 57°41' E 011°41'0 0.0
2016-May-17 09:33N 57°41' E 011°41'0 0.0
2016-May-17 08:33N 57°41' E 011°41'0 0.0
2016-May-17 07:33N 57°41' E 011°41'0 0.0
2016-May-17 06:33N 57°41' E 011°41'0 0.1
2016-May-17 05:33N 57°41' E 011°41'  

Dump ship's entire track history